Time;durP1;ratioP1;P1;durP2;ratioP2;P2;SDS_P1;SDS_P2;PMS_P1;PMS_P2;Temp;Humidity;BMP_temperature;BMP_pressure;BME280_temperature;BME280_humidity;BME280_pressure;Samples;Min_cycle;Max_cycle;Signal;HPM_P1;HPM_P2
2023/03/08 00:01:18;;;;;;;0.77;0.77;;;;;;;6.14;92.87;98753.72;5102736;28;20491;-51
2023/03/08 00:03:45;;;;;;;1.43;1.33;;;;;;;6.18;91.75;98750.06;5105839;28;20833;-51
2023/03/08 00:06:14;;;;;;;0.30;0.30;;;;;;;6.17;93.10;98740.44;5105674;28;20447;-51
2023/03/08 00:08:41;;;;;;;0.70;0.57;;;;;;;6.21;92.39;98741.19;5102019;28;20470;-51
2023/03/08 00:11:10;;;;;;;0.90;0.60;;;;;;;5.99;93.23;98742.84;5105023;28;20548;-50
2023/03/08 00:13:37;;;;;;;0.80;0.70;;;;;;;5.86;92.99;98747.66;5101942;28;20956;-52
2023/03/08 00:16:06;;;;;;;0.97;0.87;;;;;;;5.82;93.55;98752.16;5106724;28;20515;-51
2023/03/08 00:18:34;;;;;;;2.70;1.30;;;;;;;6.16;93.20;98745.75;5101786;28;20491;-51
2023/03/08 00:21:06;;;;;;;1.17;0.77;;;;;;;5.70;94.82;98749.94;5103479;28;20472;-50
2023/03/08 00:23:33;;;;;;;0.77;0.73;;;;;;;5.63;94.99;98746.66;5108947;28;20444;-50
2023/03/08 00:26:00;;;;;;;1.13;1.13;;;;;;;5.70;94.85;98744.69;5108054;28;20452;-50
2023/03/08 00:28:27;;;;;;;0.83;0.83;;;;;;;5.57;94.82;98744.22;5101742;28;20445;-50
2023/03/08 00:30:58;;;;;;;0.40;0.37;;;;;;;5.63;95.84;98743.19;5102670;28;20473;-50
2023/03/08 00:33:24;;;;;;;0.60;0.60;;;;;;;5.54;95.63;98754.88;5102529;28;20940;-50
2023/03/08 00:36:00;;;;;;;0.63;0.60;;;;;;;5.55;96.16;98756.59;5101687;28;20495;-51
2023/03/08 00:38:27;;;;;;;0.50;0.50;;;;;;;5.67;95.72;98743.94;5106882;28;20468;-50
2023/03/08 00:40:54;;;;;;;0.73;0.73;;;;;;;5.55;96.12;98743.41;5108454;28;20503;-51
2023/03/08 00:43:20;;;;;;;1.73;1.00;;;;;;;5.67;96.21;98736.88;5093280;28;20989;-51
2023/03/08 00:45:47;;;;;;;0.70;0.70;;;;;;;5.67;96.44;98741.28;5103859;28;20439;-51
2023/03/08 00:48:18;;;;;;;1.50;1.23;;;;;;;5.84;96.21;98739.78;5104323;28;20447;-51
2023/03/08 00:50:44;;;;;;;2.87;1.10;;;;;;;5.79;95.63;98740.88;5111864;28;21019;-51
2023/03/08 00:53:11;;;;;;;1.40;1.30;;;;;;;5.81;95.79;98732.00;5104042;28;20514;-51
2023/03/08 00:55:38;;;;;;;1.43;1.33;;;;;;;5.76;96.88;98738.34;5101240;28;20484;-51
2023/03/08 00:58:04;;;;;;;2.73;1.20;;;;;;;5.74;96.00;98738.38;5104956;28;20492;-50
2023/03/08 01:00:31;;;;;;;1.07;1.07;;;;;;;5.68;95.75;98735.97;5108217;28;20476;-50
2023/03/08 01:03:03;;;;;;;1.43;1.07;;;;;;;5.53;97.33;98732.06;5086680;28;20483;-50
2023/03/08 01:05:29;;;;;;;2.97;2.67;;;;;;;5.76;96.52;98727.81;5108102;28;20441;-51
2023/03/08 01:07:56;;;;;;;0.80;0.80;;;;;;;5.70;96.01;98734.13;5105387;28;20495;-51
2023/03/08 01:10:22;;;;;;;1.93;1.83;;;;;;;5.67;96.42;98725.47;5100829;28;20467;-51
2023/03/08 01:12:48;;;;;;;14.10;2.30;;;;;;;5.62;96.54;98723.88;5103366;28;20459;-51
2023/03/08 01:15:15;;;;;;;0.80;0.80;;;;;;;5.84;92.91;98715.22;5107850;28;20449;-51
2023/03/08 01:17:41;;;;;;;2.40;1.20;;;;;;;5.98;91.44;98704.19;5105706;28;20547;-51
2023/03/08 01:20:09;;;;;;;1.27;1.17;;;;;;;6.06;90.74;98700.38;5100699;28;20492;-50
2023/03/08 01:22:35;;;;;;;1.33;1.03;;;;;;;6.22;87.82;98696.28;5102233;28;20449;-51
2023/03/08 01:25:01;;;;;;;2.03;1.93;;;;;;;6.23;85.20;98687.44;5107701;28;20445;-51
2023/03/08 01:27:28;;;;;;;0.43;0.43;;;;;;;6.27;83.89;98687.31;5106136;28;21043;-51
2023/03/08 01:29:54;;;;;;;2.50;2.40;;;;;;;6.27;83.71;98687.31;5100493;28;20471;-50
2023/03/08 01:32:21;;;;;;;3.30;3.10;;;;;;;6.33;84.19;98682.69;5101847;28;20541;-51
2023/03/08 01:34:47;;;;;;;3.73;2.10;;;;;;;6.31;83.71;98681.03;5107168;28;20789;-51
2023/03/08 01:37:14;;;;;;;1.37;1.27;;;;;;;6.39;84.17;98687.72;5106475;28;20488;-52
2023/03/08 01:39:40;;;;;;;0.90;0.80;;;;;;;6.30;85.17;98677.50;5100444;28;20472;-51
2023/03/08 01:42:07;;;;;;;2.20;2.00;;;;;;;6.22;85.47;98669.88;5101506;28;20449;-51
2023/03/08 01:44:58;;;;;;;2.80;2.67;;;;;;;6.32;85.68;98674.84;5087744;28;20455;-50
2023/03/08 01:47:27;;;;;;;2.33;2.13;;;;;;;6.31;85.61;98673.13;5107087;28;20447;-51
2023/03/08 01:50:06;;;;;;;1.03;1.03;;;;;;;6.12;83.48;98676.41;5103032;28;20487;-51
2023/03/08 01:52:38;;;;;;;1.60;1.33;;;;;;;6.23;82.45;98668.97;5099827;28;20963;-50
2023/03/08 01:55:11;;;;;;;2.40;2.30;;;;;;;6.30;80.98;98671.38;5101650;28;20498;-50
2023/03/08 01:57:44;;;;;;;1.00;0.90;;;;;;;6.35;79.60;98664.16;5107001;28;20572;-51
2023/03/08 02:00:21;;;;;;;3.60;0.93;;;;;;;6.39;79.53;98657.84;5107169;28;20845;-51
2023/03/08 02:03:04;;;;;;;1.07;0.57;;;;;;;6.44;78.83;98651.47;5086168;28;20452;-51
2023/03/08 02:05:31;;;;;;;1.10;0.80;;;;;;;6.48;78.35;98649.56;5106735;28;20820;-50
2023/03/08 02:07:58;;;;;;;2.10;1.90;;;;;;;6.58;76.55;98648.31;5104024;28;20448;-51
2023/03/08 02:10:24;;;;;;;1.30;1.20;;;;;;;6.53;76.53;98643.19;5099428;28;20475;-51
2023/03/08 02:12:50;;;;;;;2.37;2.27;;;;;;;6.50;76.00;98635.41;5102793;28;20449;-51
2023/03/08 02:15:19;;;;;;;1.53;1.43;;;;;;;6.53;76.57;98632.63;5106665;28;20453;-51
2023/03/08 02:17:46;;;;;;;1.13;0.70;;;;;;;6.55;76.04;98629.94;5104005;28;20606;-51
2023/03/08 02:20:39;;;;;;;1.17;1.03;;;;;;;6.40;75.15;98620.81;5099498;28;20475;-50
2023/03/08 02:23:17;;;;;;;2.50;2.03;;;;;;;6.41;75.20;98632.25;5096617;28;20885;-50
2023/03/08 02:25:55;;;;;;;17.23;3.10;;;;;;;6.46;74.59;98625.88;5103329;28;20448;-51
2023/03/08 02:28:24;;;;;;;1.63;1.53;;;;;;;6.54;75.89;98625.56;5106454;28;20445;-51
2023/03/08 02:30:50;;;;;;;3.20;2.33;;;;;;;6.67;73.93;98631.22;5104841;28;20474;-51
2023/03/08 02:33:17;;;;;;;1.50;1.40;;;;;;;6.52;73.48;98625.63;5099067;28;20567;-51
2023/03/08 02:35:44;;;;;;;5.77;1.70;;;;;;;6.64;73.26;98626.06;5101184;28;20838;-51
2023/03/08 02:38:13;;;;;;;1.63;1.53;;;;;;;6.59;72.97;98618.34;5106299;28;20449;-51
2023/03/08 02:40:40;;;;;;;1.50;1.20;;;;;;;6.52;73.33;98616.84;5105191;28;20480;-51
2023/03/08 02:43:07;;;;;;;2.27;2.10;;;;;;;6.58;73.49;98624.56;5092573;28;20456;-51
2023/03/08 02:45:34;;;;;;;2.37;2.17;;;;;;;6.61;73.76;98613.88;5085012;28;20793;-51
2023/03/08 02:48:04;;;;;;;28.77;2.40;;;;;;;6.59;72.16;98610.44;5106052;28;20445;-51
2023/03/08 02:50:31;;;;;;;0.57;0.57;;;;;;;6.77;72.11;98612.31;5105765;28;20498;-52
2023/03/08 02:52:58;;;;;;;1.83;1.73;;;;;;;6.78;72.56;98603.47;5085954;28;20469;-51
2023/03/08 02:55:25;;;;;;;14.30;1.50;;;;;;;6.64;72.90;98603.19;5098864;28;20472;-50
2023/03/08 02:57:51;;;;;;;1.13;1.10;;;;;;;6.53;72.82;98608.00;5103966;28;20534;-51
2023/03/08 03:00:18;;;;;;;2.23;1.97;;;;;;;6.43;73.33;98598.72;5105533;28;20475;-51
2023/03/08 03:02:45;;;;;;;1.30;1.23;;;;;;;6.30;74.21;98597.50;5085715;28;20922;-50
2023/03/08 03:05:11;;;;;;;8.10;1.93;;;;;;;6.20;74.67;98594.38;5105823;28;20448;-51
2023/03/08 03:07:40;;;;;;;1.70;1.60;;;;;;;6.12;75.23;98594.66;5101385;28;20453;-51
2023/03/08 03:10:11;;;;;;;3.97;2.37;;;;;;;6.18;75.39;98597.06;5097515;28;20479;-50
2023/03/08 03:12:38;;;;;;;1.60;1.50;;;;;;;6.05;74.71;98595.81;5102549;28;20987;-50
2023/03/08 03:15:06;;;;;;;3.40;2.20;;;;;;;6.03;74.93;98594.13;5105652;28;20453;-50
2023/03/08 03:17:35;;;;;;;2.30;1.13;;;;;;;6.18;75.52;98588.28;5102935;28;20549;-50
2023/03/08 03:20:07;;;;;;;1.10;1.00;;;;;;;6.13;74.86;98591.09;5097188;28;20988;-51
2023/03/08 03:22:35;;;;;;;1.80;0.83;;;;;;;6.01;75.24;98594.19;5100760;28;20469;-50
2023/03/08 03:25:02;;;;;;;2.67;2.23;;;;;;;6.07;75.57;98591.34;5105801;28;20457;-51
2023/03/08 03:27:28;;;;;;;2.23;1.80;;;;;;;5.98;74.98;98596.94;5108240;28;20440;-51
2023/03/08 03:29:54;;;;;;;3.37;1.17;;;;;;;6.09;74.16;98596.53;5102560;28;20839;-51
2023/03/08 03:32:21;;;;;;;1.93;1.83;;;;;;;6.00;75.00;98592.47;5104462;28;20449;-50
2023/03/08 03:34:48;;;;;;;1.83;1.70;;;;;;;5.94;75.29;98593.56;5109849;28;20451;-51
2023/03/08 03:37:14;;;;;;;1.70;1.43;;;;;;;5.87;74.72;98585.91;5108582;28;20482;-50
2023/03/08 03:39:41;;;;;;;3.27;2.20;;;;;;;5.93;74.14;98591.84;5102624;28;21051;-51
2023/03/08 03:42:08;;;;;;;4.27;1.53;;;;;;;6.04;74.84;98587.97;5103584;28;20981;-50
2023/03/08 03:44:34;;;;;;;2.87;2.57;;;;;;;5.88;75.08;98585.84;5089876;28;20506;-50
2023/03/08 03:47:01;;;;;;;1.80;1.67;;;;;;;6.06;74.29;98581.69;5108850;28;20440;-50
2023/03/08 03:49:27;;;;;;;3.87;2.50;;;;;;;6.26;74.45;98578.28;5102502;28;20455;-51
2023/03/08 03:51:54;;;;;;;3.97;1.70;;;;;;;6.08;73.85;98579.88;5103088;28;20563;-50
2023/03/08 03:54:20;;;;;;;2.40;2.03;;;;;;;6.10;74.23;98575.38;5115511;28;20443;-50
2023/03/08 03:56:47;;;;;;;3.80;3.37;;;;;;;5.97;74.69;98568.00;5103102;28;20493;-50
2023/03/08 03:59:14;;;;;;;1.90;1.80;;;;;;;6.12;75.27;98557.72;5109275;28;20800;-50
2023/03/08 04:01:40;;;;;;;1.47;1.37;;;;;;;5.92;75.31;98570.81;5102711;28;20481;-51
2023/03/08 04:04:09;;;;;;;3.37;2.03;;;;;;;5.93;75.42;98573.41;5109159;28;21027;-51
2023/03/08 04:06:35;;;;;;;2.60;1.57;;;;;;;6.03;74.94;98573.91;5109001;28;20928;-51
2023/03/08 04:09:07;;;;;;;2.20;2.10;;;;;;;5.94;76.20;98572.47;5103239;28;20470;-50
2023/03/08 04:11:36;;;;;;;2.20;1.90;;;;;;;5.99;75.29;98574.94;5102093;28;20835;-50
2023/03/08 04:14:03;;;;;;;2.77;1.53;;;;;;;5.93;76.14;98570.75;5102102;28;20532;-50
2023/03/08 04:16:32;;;;;;;2.10;2.00;;;;;;;5.82;76.22;98577.31;5108810;28;20496;-51
2023/03/08 04:19:02;;;;;;;0.83;0.80;;;;;;;5.90;77.04;98564.75;5104885;28;20450;-51
2023/03/08 04:21:29;;;;;;;3.83;0.93;;;;;;;5.87;77.30;98572.72;5101744;28;20460;-51
2023/03/08 04:23:56;;;;;;;2.73;2.10;;;;;;;5.75;77.64;98568.75;5105298;28;21067;-50
2023/03/08 04:26:26;;;;;;;2.97;2.67;;;;;;;5.91;78.27;98569.09;5109097;28;20441;-50
2023/03/08 04:28:52;;;;;;;3.90;3.03;;;;;;;5.96;78.84;98568.91;5106175;28;20793;-50
2023/03/08 04:31:26;;;;;;;2.17;1.50;;;;;;;5.99;77.97;98566.16;5101706;28;20472;-51
2023/03/08 04:33:54;;;;;;;28.07;2.40;;;;;;;5.86;79.04;98566.59;5103579;28;20947;-50
2023/03/08 04:36:21;;;;;;;4.20;2.23;;;;;;;5.89;78.84;98557.69;5108006;28;20491;-51
2023/03/08 04:38:49;;;;;;;3.77;2.27;;;;;;;5.83;78.31;98550.88;5107446;28;20447;-50
2023/03/08 04:41:15;;;;;;;1.10;1.00;;;;;;;5.80;78.77;98545.72;5102673;28;20471;-51
2023/03/08 04:43:54;;;;;;;2.90;2.00;;;;;;;5.71;78.90;98540.78;5101071;28;20908;-50
2023/03/08 04:46:25;;;;;;;2.33;1.90;;;;;;;5.78;79.03;98547.56;5090295;28;20820;-50
2023/03/08 04:48:54;;;;;;;2.30;2.10;;;;;;;5.75;78.79;98545.03;5101709;28;20449;-50
2023/03/08 04:51:23;;;;;;;1.80;1.70;;;;;;;5.72;78.79;98541.66;5106227;28;20567;-50
2023/03/08 04:53:50;;;;;;;2.00;1.20;;;;;;;5.59;80.65;98550.00;5108422;28;20539;-51
2023/03/08 04:56:17;;;;;;;2.23;1.40;;;;;;;5.63;79.65;98543.72;5103549;28;20455;-50
2023/03/08 04:58:44;;;;;;;2.30;2.10;;;;;;;5.65;80.64;98533.13;5101115;28;20495;-50
2023/03/08 05:01:16;;;;;;;12.37;2.60;;;;;;;5.68;79.87;98529.50;5103574;28;20465;-51
2023/03/08 05:03:43;;;;;;;2.70;2.13;;;;;;;5.69;80.80;98516.28;5104348;28;20445;-51
2023/03/08 05:06:12;;;;;;;1.33;1.27;;;;;;;5.68;80.76;98519.81;5104481;28;20449;-50
2023/03/08 05:08:39;;;;;;;15.53;1.80;;;;;;;5.79;80.36;98522.06;5101050;28;20902;-51
2023/03/08 05:11:06;;;;;;;2.50;1.77;;;;;;;5.90;79.75;98520.78;5103978;28;20475;-51
2023/03/08 05:13:36;;;;;;;1.47;1.37;;;;;;;5.95;79.94;98517.97;5101617;28;20452;-50
2023/03/08 05:16:04;;;;;;;3.27;1.80;;;;;;;5.78;79.88;98510.66;5105448;28;20448;-51
2023/03/08 05:18:31;;;;;;;2.70;1.73;;;;;;;5.78;80.27;98499.25;5100447;28;20484;-51
2023/03/08 05:21:00;;;;;;;2.73;2.40;;;;;;;5.70;80.13;98501.31;5103331;28;20512;-51
2023/03/08 05:23:28;;;;;;;2.27;1.57;;;;;;;5.98;79.42;98498.50;5107655;28;20449;-50
2023/03/08 05:25:56;;;;;;;3.83;1.60;;;;;;;5.77;79.26;98489.63;5105970;28;20444;-51
2023/03/08 05:28:25;;;;;;;2.17;2.00;;;;;;;5.65;80.11;98491.81;5100344;28;20935;-51
2023/03/08 05:31:03;;;;;;;6.57;2.50;;;;;;;5.59;79.93;98480.63;5101330;28;20990;-50
2023/03/08 05:33:30;;;;;;;1.77;1.40;;;;;;;5.54;80.03;98477.31;5089027;28;20443;-50
2023/03/08 05:35:57;;;;;;;6.10;2.00;;;;;;;5.90;79.20;98473.31;5100265;28;20510;-51
2023/03/08 05:38:24;;;;;;;6.00;3.57;;;;;;;5.85;78.19;98467.31;5106041;28;20545;-51
2023/03/08 05:40:51;;;;;;;7.80;2.13;;;;;;;5.83;78.57;98455.97;5107180;28;20468;-51
2023/03/08 05:43:18;;;;;;;2.27;2.17;;;;;;;5.69;78.10;98453.00;5092274;28;20507;-51
2023/03/08 05:46:06;;;;;;;2.30;2.00;;;;;;;5.69;78.73;98442.47;5089945;28;20452;-50
2023/03/08 05:48:34;;;;;;;6.60;1.00;;;;;;;5.62;78.83;98436.59;5102167;28;20442;-51
2023/03/08 05:51:06;;;;;;;2.40;2.20;;;;;;;5.66;78.37;98434.69;5106863;28;20469;-51
2023/03/08 05:53:32;;;;;;;2.80;2.27;;;;;;;5.60;78.76;98446.31;5105683;28;20448;-51
2023/03/08 05:56:08;;;;;;;4.50;2.43;;;;;;;5.61;77.99;98450.66;5100092;28;20497;-50
2023/03/08 05:58:35;;;;;;;4.00;1.90;;;;;;;5.63;78.05;98440.94;5099879;28;20488;-50
2023/03/08 06:01:21;;;;;;;2.93;2.20;;;;;;;5.64;77.54;98433.91;5104860;28;21030;-50
2023/03/08 06:03:50;;;;;;;1.30;1.20;;;;;;;5.64;77.36;98415.44;5094084;28;20448;-51
2023/03/08 06:06:18;;;;;;;4.33;1.40;;;;;;;5.55;77.98;98411.38;5102804;28;20455;-50
2023/03/08 06:08:45;;;;;;;4.20;3.23;;;;;;;5.64;77.69;98418.94;5106899;28;20463;-50
2023/03/08 06:11:12;;;;;;;2.30;1.67;;;;;;;5.64;78.37;98426.00;5104184;28;20464;-50
2023/03/08 06:13:39;;;;;;;2.63;1.23;;;;;;;5.57;77.33;98433.25;5099410;28;20944;-51
2023/03/08 06:16:06;;;;;;;3.93;2.20;;;;;;;5.60;77.62;98433.13;5101931;28;20941;-51
2023/03/08 06:18:35;;;;;;;2.13;2.03;;;;;;;5.51;76.83;98425.59;5106783;28;20970;-50
2023/03/08 06:21:06;;;;;;;5.47;1.80;;;;;;;5.55;76.87;98429.81;5104616;28;20474;-51
2023/03/08 06:23:34;;;;;;;10.20;2.27;;;;;;;5.64;76.40;98418.09;5099445;28;20954;-51
2023/03/08 06:26:02;;;;;;;3.03;2.17;;;;;;;5.54;76.28;98414.94;5101201;28;20449;-50
2023/03/08 06:28:29;;;;;;;8.70;2.57;;;;;;;5.50;76.36;98415.97;5106269;28;20445;-51
2023/03/08 06:30:57;;;;;;;4.40;2.90;;;;;;;5.54;75.45;98419.34;5105949;28;20472;-50
2023/03/08 06:33:26;;;;;;;1.47;0.60;;;;;;;5.59;74.82;98417.38;5099290;28;20451;-50
2023/03/08 06:36:02;;;;;;;1.43;1.33;;;;;;;5.60;75.41;98419.97;5099568;28;20472;-51
2023/03/08 06:38:30;;;;;;;1.67;1.53;;;;;;;5.72;73.98;98412.50;5088748;28;20476;-51
2023/03/08 06:40:59;;;;;;;2.00;1.27;;;;;;;5.74;74.03;98408.88;5099040;28;20498;-51
2023/03/08 06:43:26;;;;;;;2.57;2.00;;;;;;;5.76;74.44;98406.22;5103945;28;20456;-51
2023/03/08 06:45:53;;;;;;;1.67;1.57;;;;;;;5.83;74.62;98410.31;5106334;28;20455;-50
2023/03/08 06:48:19;;;;;;;1.93;1.00;;;;;;;5.76;74.03;98407.06;5101303;28;20458;-50
2023/03/08 06:50:46;;;;;;;3.40;3.23;;;;;;;5.74;75.21;98400.09;5098709;28;20530;-50
2023/03/08 06:53:13;;;;;;;3.17;1.30;;;;;;;5.74;75.53;98392.19;5104047;28;20449;-50
2023/03/08 06:55:39;;;;;;;1.20;1.10;;;;;;;5.60;75.38;98390.97;5094755;28;20440;-50
2023/03/08 06:58:07;;;;;;;3.30;1.27;;;;;;;6.07;76.03;98392.66;5102304;28;20492;-50
2023/03/08 07:00:33;;;;;;;2.73;2.53;;;;;;;5.64;77.29;98391.72;5106045;28;20577;-50
2023/03/08 07:03:00;;;;;;;12.73;1.87;;;;;;;5.60;78.89;98395.38;5085828;28;20457;-50
2023/03/08 07:05:26;;;;;;;6.47;2.20;;;;;;;5.74;79.17;98385.16;5105916;28;20453;-50
2023/03/08 07:07:52;;;;;;;7.90;1.97;;;;;;;5.49;81.17;98376.53;5102178;28;20444;-50
2023/03/08 07:10:20;;;;;;;6.90;1.90;;;;;;;5.55;80.98;98387.66;5098907;28;20873;-50
2023/03/08 07:12:50;;;;;;;5.20;3.00;;;;;;;5.72;82.98;98378.22;5101090;28;20445;-50
2023/03/08 07:15:19;;;;;;;7.27;2.97;;;;;;;5.35;84.22;98369.16;5104973;28;20453;-49
2023/03/08 07:17:47;;;;;;;1.23;1.23;;;;;;;5.04;89.13;98356.25;5104742;28;20487;-50
2023/03/08 07:20:16;;;;;;;1.30;1.20;;;;;;;5.09;88.99;98354.34;5098840;28;20836;-50
2023/03/08 07:22:44;;;;;;;2.03;1.93;;;;;;;5.13;90.08;98355.94;5099881;28;20445;-50
2023/03/08 07:25:16;;;;;;;1.80;1.70;;;;;;;4.97;92.00;98341.63;5105758;28;20502;-50
2023/03/08 07:27:43;;;;;;;5.20;2.23;;;;;;;4.90;92.15;98334.88;5105972;28;20436;-50
2023/03/08 07:30:12;;;;;;;2.20;2.10;;;;;;;4.77;94.18;98339.72;5105677;28;20469;-50
2023/03/08 07:32:43;;;;;;;3.23;1.63;;;;;;;4.95;94.93;98341.69;5105939;28;20538;-50
2023/03/08 07:35:12;;;;;;;11.63;1.53;;;;;;;5.02;95.58;98337.03;5100693;28;20811;-50
2023/03/08 07:37:39;;;;;;;2.67;1.63;;;;;;;4.64;97.03;98327.91;5099605;28;20827;-49
2023/03/08 07:40:07;;;;;;;2.13;1.80;;;;;;;4.66;97.28;98318.19;5103843;28;20465;-50
2023/03/08 07:42:33;;;;;;;1.47;1.37;;;;;;;4.68;97.49;98305.88;5105615;28;20451;-50
2023/03/08 07:44:59;;;;;;;2.00;1.90;;;;;;;4.66;99.00;98299.78;5101434;28;20448;-50
2023/03/08 07:47:26;;;;;;;1.67;1.57;;;;;;;4.55;99.07;98291.44;5097552;28;20534;-50
2023/03/08 07:49:52;;;;;;;1.70;1.60;;;;;;;4.63;99.92;98282.34;5102932;28;20484;-50
2023/03/08 07:52:19;;;;;;;2.47;2.23;;;;;;;4.52;100.00;98286.28;5105692;28;20448;-50
2023/03/08 07:54:45;;;;;;;1.60;1.50;;;;;;;4.39;99.92;98284.13;5092223;28;20814;-50
2023/03/08 07:57:13;;;;;;;1.77;1.57;;;;;;;4.24;100.00;98276.75;5105857;28;20499;-50
2023/03/08 07:59:40;;;;;;;4.33;2.60;;;;;;;4.07;100.00;98273.88;5103610;28;20975;-50
2023/03/08 08:02:12;;;;;;;2.10;1.07;;;;;;;3.88;100.00;98264.91;5087577;28;20502;-49
2023/03/08 08:04:39;;;;;;;0.93;0.90;;;;;;;3.90;100.00;98263.09;5103286;28;20456;-49
2023/03/08 08:07:10;;;;;;;15.50;2.03;;;;;;;3.79;100.00;98258.19;5097552;28;20546;-49
2023/03/08 08:09:36;;;;;;;1.43;1.20;;;;;;;3.86;100.00;98255.31;5100268;28;20437;-49
2023/03/08 08:12:03;;;;;;;2.40;2.30;;;;;;;3.97;100.00;98251.44;5107254;28;20494;-50
2023/03/08 08:14:30;;;;;;;0.87;0.87;;;;;;;3.89;100.00;98240.34;5107734;28;20443;-50
2023/03/08 08:16:56;;;;;;;1.17;1.17;;;;;;;4.02;100.00;98233.75;5101807;28;20451;-50
2023/03/08 08:19:23;;;;;;;1.43;1.33;;;;;;;4.18;100.00;98237.53;5103464;28;20445;-50
2023/03/08 08:21:50;;;;;;;1.63;1.53;;;;;;;4.07;100.00;98235.28;5109603;28;20445;-50
2023/03/08 08:24:16;;;;;;;39.50;1.53;;;;;;;4.08;100.00;98225.63;5108383;28;20448;-50
2023/03/08 08:26:43;;;;;;;5.67;2.10;;;;;;;3.80;100.00;98223.97;5102184;28;20505;-49
2023/03/08 08:29:09;;;;;;;0.53;0.50;;;;;;;3.95;100.00;98221.72;5103562;28;20445;-50
2023/03/08 08:31:36;;;;;;;2.10;1.80;;;;;;;3.81;100.00;98211.69;5108648;28;20469;-50
2023/03/08 08:34:02;;;;;;;1.77;1.63;;;;;;;3.99;100.00;98207.59;5107842;28;20972;-49
2023/03/08 08:36:29;;;;;;;2.47;2.37;;;;;;;4.01;100.00;98184.72;5101825;28;20443;-50
2023/03/08 08:38:55;;;;;;;2.00;1.90;;;;;;;3.86;100.00;98176.47;5102910;28;20489;-50
2023/03/08 08:41:22;;;;;;;4.03;2.53;;;;;;;3.80;100.00;98171.44;5108995;28;20468;-50
2023/03/08 08:43:49;;;;;;;1.60;1.43;;;;;;;3.88;100.00;98178.19;5089772;28;20453;-49
2023/03/08 08:46:16;;;;;;;1.53;1.40;;;;;;;3.83;100.00;98163.44;5108409;28;20954;-50
2023/03/08 08:48:43;;;;;;;3.07;1.17;;;;;;;3.91;100.00;98176.31;5095313;28;20444;-50
2023/03/08 08:51:12;;;;;;;6.60;3.47;;;;;;;4.10;100.00;98168.59;5108426;28;20484;-50
2023/03/08 08:53:38;;;;;;;1.07;0.63;;;;;;;3.94;100.00;98163.06;5108289;28;20444;-50
2023/03/08 08:56:12;;;;;;;1.50;1.40;;;;;;;3.84;100.00;98159.91;5102030;28;20497;-50
2023/03/08 08:58:52;;;;;;;4.73;2.57;;;;;;;3.74;100.00;98145.38;5101312;28;20991;-50
2023/03/08 09:01:25;;;;;;;1.70;1.60;;;;;;;3.75;100.00;98141.00;5102024;28;20478;-49
2023/03/08 09:03:52;;;;;;;0.80;0.80;;;;;;;3.98;100.00;98134.91;5105686;28;20987;-49
2023/03/08 09:06:23;;;;;;;2.60;0.73;;;;;;;3.97;100.00;98133.16;5105337;28;20455;-51
2023/03/08 09:08:55;;;;;;;2.33;2.23;;;;;;;3.93;100.00;98142.09;5101750;28;20470;-50
2023/03/08 09:11:24;;;;;;;3.03;1.30;;;;;;;3.93;100.00;98134.19;5103187;28;20457;-49
2023/03/08 09:13:51;;;;;;;1.53;1.43;;;;;;;3.76;100.00;98146.19;5101283;28;20462;-50
2023/03/08 09:16:26;;;;;;;6.70;3.17;;;;;;;3.89;100.00;98143.13;5107982;28;20444;-49
2023/03/08 09:18:55;;;;;;;3.90;1.13;;;;;;;3.82;100.00;98148.56;5107238;28;20492;-50
2023/03/08 09:21:23;;;;;;;5.70;2.23;;;;;;;4.12;100.00;98138.75;5107718;28;20474;-50
2023/03/08 09:23:50;;;;;;;3.57;2.43;;;;;;;4.16;100.00;98136.84;5101038;28;20459;-49
2023/03/08 09:26:17;;;;;;;3.37;3.17;;;;;;;4.27;100.00;98141.69;5101416;28;20457;-50
2023/03/08 09:28:43;;;;;;;2.63;2.53;;;;;;;4.20;100.00;98141.06;5105331;28;20514;-50
2023/03/08 09:31:13;;;;;;;0.97;0.93;;;;;;;4.21;100.00;98128.78;5106906;28;20537;-50
2023/03/08 09:33:48;;;;;;;2.93;2.73;;;;;;;4.27;100.00;98128.56;5103285;28;20443;-49
2023/03/08 09:36:15;;;;;;;3.43;1.90;;;;;;;4.04;100.00;98126.78;5100821;28;20981;-50
2023/03/08 09:38:41;;;;;;;1.80;1.70;;;;;;;4.10;100.00;98124.75;5103716;28;20925;-50
2023/03/08 09:41:24;;;;;;;3.07;2.97;;;;;;;4.24;100.00;98124.25;5107605;28;20820;-50
2023/03/08 09:44:25;;;;;;;2.37;2.10;;;;;;;4.41;100.00;98119.22;5087864;28;20908;-49
2023/03/08 09:47:04;;;;;;;1.60;1.50;;;;;;;4.49;100.00;98115.41;5095516;28;20444;-50
2023/03/08 09:49:32;;;;;;;2.20;2.00;;;;;;;4.36;100.00;98105.38;5100359;28;20497;-51
2023/03/08 09:52:09;;;;;;;7.40;1.33;;;;;;;4.30;100.00;98102.13;5101196;28;20457;-50
2023/03/08 09:54:37;;;;;;;0.50;0.50;;;;;;;4.34;100.00;98104.56;5093976;28;20447;-50
2023/03/08 09:57:10;;;;;;;2.07;1.63;;;;;;;4.29;100.00;98087.28;5107240;28;20444;-50
2023/03/08 09:59:56;;;;;;;1.43;1.13;;;;;;;4.41;100.00;98086.81;5103154;28;20495;-50
2023/03/08 10:03:01;;;;;;;1.00;1.00;;;;;;;4.53;100.00;98096.00;5107223;28;20452;-49
2023/03/08 10:05:44;;;;;;;6.83;3.23;;;;;;;4.58;100.00;98083.50;5099950;28;20447;-50
2023/03/08 10:08:24;;;;;;;2.50;1.40;;;;;;;4.32;100.00;98074.84;5100336;28;20472;-50
2023/03/08 10:10:54;;;;;;;1.13;0.77;;;;;;;4.26;100.00;98069.84;5090486;28;20464;-49
2023/03/08 10:13:48;;;;;;;2.87;1.40;;;;;;;4.22;100.00;98065.59;5099852;28;20476;-50
2023/03/08 10:16:39;;;;;;;2.50;1.77;;;;;;;4.36;100.00;98065.91;5101118;28;20444;-49
2023/03/08 10:19:31;;;;;;;6.13;2.13;;;;;;;4.35;100.00;98069.47;5092165;28;20532;-50
2023/03/08 10:22:02;;;;;;;1.70;1.60;;;;;;;4.24;100.00;98058.50;5099749;28;20471;-50
2023/03/08 10:24:38;;;;;;;1.80;1.30;;;;;;;4.28;100.00;98065.38;5099876;28;20437;-51
2023/03/08 10:27:26;;;;;;;1.30;1.27;;;;;;;4.15;100.00;98056.25;5105571;28;20448;-50
2023/03/08 10:29:57;;;;;;;1.00;0.83;;;;;;;3.89;100.00;98051.16;5106502;28;20556;-50
2023/03/08 10:32:25;;;;;;;3.70;1.47;;;;;;;4.26;100.00;98047.97;5105030;28;20485;-50
2023/03/08 10:34:59;;;;;;;0.47;0.40;;;;;;;4.05;100.00;98047.88;5099362;28;20486;-50
2023/03/08 10:37:31;;;;;;;0.83;0.60;;;;;;;4.09;100.00;98030.19;5100390;28;20441;-50
2023/03/08 10:40:03;;;;;;;1.00;1.00;;;;;;;4.13;100.00;98019.53;5100398;28;20502;-50
2023/03/08 10:42:32;;;;;;;5.37;4.27;;;;;;;4.29;100.00;98021.53;5099673;28;20502;-50
2023/03/08 10:45:03;;;;;;;0.77;0.77;;;;;;;4.30;100.00;98018.84;5084643;28;20550;-50
2023/03/08 10:47:34;;;;;;;0.77;0.77;;;;;;;4.19;100.00;98021.03;5106407;28;20532;-50
2023/03/08 10:50:11;;;;;;;1.07;1.03;;;;;;;4.06;100.00;98012.78;5105760;28;20496;-49
2023/03/08 10:52:37;;;;;;;1.17;1.17;;;;;;;3.85;100.00;98003.97;5099413;28;20443;-49
2023/03/08 10:55:10;;;;;;;7.57;0.93;;;;;;;3.90;100.00;97988.03;5101540;28;20445;-49
2023/03/08 10:57:39;;;;;;;1.17;1.07;;;;;;;3.82;100.00;97995.31;5106288;28;20452;-50
2023/03/08 11:00:23;;;;;;;1.37;1.27;;;;;;;3.79;100.00;97998.94;5106379;28;20555;-50
2023/03/08 11:02:49;;;;;;;1.60;1.50;;;;;;;3.83;100.00;97997.03;5085895;28;20453;-48
2023/03/08 11:05:19;;;;;;;0.60;0.60;;;;;;;3.96;100.00;98000.91;5106078;28;20471;-48
2023/03/08 11:07:52;;;;;;;1.73;1.63;;;;;;;3.86;100.00;97987.28;5102399;28;20527;-50
2023/03/08 11:10:22;;;;;;;0.47;0.47;;;;;;;4.24;100.00;97997.19;5099235;28;20468;-49
2023/03/08 11:13:01;;;;;;;0.93;0.93;;;;;;;4.13;100.00;97992.38;5101838;28;20445;-50
2023/03/08 11:15:31;;;;;;;1.60;0.43;;;;;;;4.14;100.00;97989.69;5105966;28;20449;-49
2023/03/08 11:18:05;;;;;;;0.90;0.90;;;;;;;4.10;100.00;97974.94;5106143;28;20858;-51
2023/03/08 11:20:59;;;;;;;1.90;1.80;;;;;;;4.24;100.00;97982.25;5088111;28;20463;-50
2023/03/08 11:24:12;;;;;;;2.87;1.23;;;;;;;4.36;100.00;97973.88;5099301;28;20451;-50
2023/03/08 11:27:23;;;;;;;1.70;0.70;;;;;;;4.44;100.00;97981.47;5070731;28;20956;-50
2023/03/08 11:29:55;;;;;;;1.13;1.13;;;;;;;4.71;100.00;97979.47;5098627;28;20936;-49
2023/03/08 11:32:53;;;;;;;0.63;0.63;;;;;;;4.85;100.00;97974.47;5101031;28;20440;-50
2023/03/08 11:35:24;;;;;;;1.00;0.97;;;;;;;5.00;100.00;97970.31;5091448;28;20505;-50
2023/03/08 11:37:59;;;;;;;6.63;1.50;;;;;;;5.15;100.00;97972.28;5099068;28;20443;-49
2023/03/08 11:40:40;;;;;;;0.40;0.37;;;;;;;5.13;100.00;97968.84;5101482;28;20999;-50
2023/03/08 11:43:27;;;;;;;0.83;0.83;;;;;;;5.01;100.00;97964.97;5109255;28;20496;-49
2023/03/08 11:46:14;;;;;;;2.30;1.03;;;;;;;5.32;100.00;97963.63;5096364;28;21427;-50
2023/03/08 11:48:49;;;;;;;1.50;1.40;;;;;;;5.35;100.00;97967.00;5108923;28;20831;-49
2023/03/08 11:51:28;;;;;;;1.33;0.77;;;;;;;5.47;100.00;97962.06;5089282;28;20831;-50
2023/03/08 11:54:13;;;;;;;2.20;2.00;;;;;;;5.70;100.00;97963.66;5100617;28;20488;-51